Terminal Aerodrome Forecast
Issued by NWS Charleston, WV

Current Version | Previous Version | Text Only | Print | Product List | Glossary Off
Versions: 1 2 3 4 5 6 7 8 9 10 11 12 13 14 15 16 17 18 19 20 21 22 23 24 25 26

000
FTUS41 KRLX 150848 AAA
TAFBKW
TAF AMD
KBKW 150848Z 1509/1606 35005KT 1/4SM FG VV002
     FM151600 VRB02KT 4SM BR OVC006
     FM151800 VRB02KT P6SM OVC010
     FM160300 VRB03KT 4SM -RA OVC003=

USA.gov is the U.S. government's official web portal to all federal, state and local government web resources and services.